Airfield :
LOGIN :

Register | Disclaimer

   EN    FR    IT 

 










Legend :    VFR   Marginal VFR   IFR   Intensive IFR   Very Intensive IFR
Visi :
Ceiling :
>= 8 km
>= 3000ft
5 to 8 km
1000 to 3000 ft
1500m to 5 km
500 to 1000 ft
800 to 1500m
200 to 500 ft
< 800m
< 200 ft
Symbols :   Thunderstorms  Fog  Heavy snow  Heavy precipitations  Wind > 20 kt
SIGMETs :     Misc.  Thunderstorms  Icing  Turbulence  Mountain Waves  Volcanic Ashes






- Airport Elevation : 327 ft
- IATA code : BHX


EGBB - Birmingham

CURRENT METAR :
  • 291020Z 01009KT 9999 SCT014 BKN031TCU 12/09 Q1004

EXPIRED METARs :
  • 290950Z 03008KT 9999 FEW014 BKN031TCU 12/10 Q1004
  • 290920Z 02009KT 9999 BKN011 FEW015TCU 12/10 Q1003
  • 290850Z 01008KT 9999 BKN009 12/10 Q1003
  • 290820Z 03006KT 350V050 9999 BKN005 11/10 Q1002 RERA
  • 290750Z 01005KT 3500 RA BKN004 11/10 Q1002

TAF AMD TAF EGBB
Valid from the 29 at 06:00 until the 30 at 06:00 UTC


290612Z 2906/3006 03006KT 9999 SCT035
TEMPO 2906/2909 4000 SHRA BKN008
PROB40
TEMPO 2906/2908 1200 RADZ BKN004
PROB30
TEMPO 2909/2912 8000 BKN012
PROB30
TEMPO 2914/2918 7000 SHRA
PROB30
TEMPO 2922/2924 8000
TEMPO 3000/3006 3000 BR
PROB30
TEMPO 3003/3006 0300 FG VV///
ATIS : +44 121 780 0910



MET'MAP, your aeronautical weather chart ! - Copyright ORBIFLY December 2007 - Disclaimer

ORBIFLY MET'MAP TEAM :

Programming & Development : Alexandra Zaïnal
Original concept : Baudouin d'Aumeries
Technical & hardware support : Manuel Goepfert
Assistance : Marc-Olivier Méhu




SOURCES & CREDITS :

   NOAA